Chili, New Mexico
Current Conditions -  °F | °C
As of 12:15 PM on Thursday 18 Dec 2014 (Local Time) from KLAM Reporting Station
Overcast Overcast  
Wind Chill: 32°   Ceiling: 4100
Heat Index: 32°   Visibility: 10mi
Dew Point: 28°   Wind: 0mph
Humidity: 84%   Direction: NA
Pressure: 30.1"   Gusts: NA
Location:  36.0385°N, 106.224°W
Report Text: KLAM 181915Z AUTO 00000KT 10SM SCT014 OVC041 00/M02 A3010 RMK AO2 T00001024
Loading
Personal Weather Stations






























Interactive Weather Map New forecast layout! Learn more

10-Day Weather Forecast

Advertisements
Track Severe Weather on mobile